sensor_id;sensor_type;location;lat;lon;timestamp;P1;durP1;ratioP1;P2;durP2;ratioP2
15915;SDS011;8057;47.830;-3.870;2022-09-13T00:03:23;5.10;;;4.17;;
15915;SDS011;8057;47.830;-3.870;2022-09-13T00:07:36;6.17;;;4.53;;
15915;SDS011;8057;47.830;-3.870;2022-09-13T00:12:00;4.77;;;3.30;;
15915;SDS011;8057;47.830;-3.870;2022-09-13T00:41:15;5.57;;;4.53;;
15915;SDS011;8057;47.830;-3.870;2022-09-13T01:00:22;5.23;;;4.73;;
15915;SDS011;8057;47.830;-3.870;2022-09-13T01:04:57;6.47;;;4.17;;
15915;SDS011;8057;47.830;-3.870;2022-09-13T01:09:09;5.37;;;4.50;;
15915;SDS011;8057;47.830;-3.870;2022-09-13T01:13:31;5.37;;;4.10;;
15915;SDS011;8057;47.830;-3.870;2022-09-13T01:18:05;8.97;;;4.60;;
15915;SDS011;8057;47.830;-3.870;2022-09-13T01:32:17;7.23;;;4.23;;
15915;SDS011;8057;47.830;-3.870;2022-09-13T01:41:42;6.77;;;4.10;;
15915;SDS011;8057;47.830;-3.870;2022-09-13T01:46:45;6.37;;;4.00;;
15915;SDS011;8057;47.830;-3.870;2022-09-13T02:51:54;10.33;;;3.63;;
15915;SDS011;8057;47.830;-3.870;2022-09-13T02:56:21;8.20;;;3.50;;
15915;SDS011;8057;47.830;-3.870;2022-09-13T03:01:04;9.33;;;3.63;;
15915;SDS011;8057;47.830;-3.870;2022-09-13T03:10:01;9.73;;;3.30;;
15915;SDS011;8057;47.830;-3.870;2022-09-13T03:28:36;10.37;;;3.70;;
15915;SDS011;8057;47.830;-3.870;2022-09-13T03:32:59;8.03;;;3.10;;
15915;SDS011;8057;47.830;-3.870;2022-09-13T03:37:46;6.73;;;3.07;;
15915;SDS011;8057;47.830;-3.870;2022-09-13T03:42:06;11.10;;;3.43;;
15915;SDS011;8057;47.830;-3.870;2022-09-13T04:00:55;10.27;;;3.37;;
15915;SDS011;8057;47.830;-3.870;2022-09-13T04:05:06;9.30;;;2.93;;
15915;SDS011;8057;47.830;-3.870;2022-09-13T04:09:37;10.47;;;3.17;;
15915;SDS011;8057;47.830;-3.870;2022-09-13T04:14:04;10.63;;;3.40;;
15915;SDS011;8057;47.830;-3.870;2022-09-13T04:24:03;11.37;;;3.60;;
15915;SDS011;8057;47.830;-3.870;2022-09-13T04:28:13;11.20;;;3.53;;
15915;SDS011;8057;47.830;-3.870;2022-09-13T04:32:25;11.57;;;3.67;;
15915;SDS011;8057;47.830;-3.870;2022-09-13T04:36:35;13.00;;;3.83;;
15915;SDS011;8057;47.830;-3.870;2022-09-13T04:45:13;15.10;;;4.13;;
15915;SDS011;8057;47.830;-3.870;2022-09-13T04:49:24;11.27;;;3.20;;
15915;SDS011;8057;47.830;-3.870;2022-09-13T04:53:33;10.83;;;3.00;;
15915;SDS011;8057;47.830;-3.870;2022-09-13T04:57:44;10.37;;;3.27;;
15915;SDS011;8057;47.830;-3.870;2022-09-13T05:01:54;10.00;;;3.30;;
15915;SDS011;8057;47.830;-3.870;2022-09-13T05:06:04;11.47;;;3.50;;
15915;SDS011;8057;47.830;-3.870;2022-09-13T05:10:15;9.53;;;2.90;;
15915;SDS011;8057;47.830;-3.870;2022-09-13T05:14:26;9.37;;;2.93;;
15915;SDS011;8057;47.830;-3.870;2022-09-13T05:18:36;7.90;;;2.77;;
15915;SDS011;8057;47.830;-3.870;2022-09-13T05:22:53;10.93;;;3.30;;
15915;SDS011;8057;47.830;-3.870;2022-09-13T05:27:03;9.53;;;3.03;;
15915;SDS011;8057;47.830;-3.870;2022-09-13T05:31:16;9.37;;;3.40;;
15915;SDS011;8057;47.830;-3.870;2022-09-13T05:35:27;14.43;;;3.20;;
15915;SDS011;8057;47.830;-3.870;2022-09-13T05:39:37;7.90;;;3.10;;
15915;SDS011;8057;47.830;-3.870;2022-09-13T05:44:06;6.67;;;2.40;;
15915;SDS011;8057;47.830;-3.870;2022-09-13T05:48:20;10.13;;;3.07;;
15915;SDS011;8057;47.830;-3.870;2022-09-13T05:52:30;9.63;;;3.37;;
15915;SDS011;8057;47.830;-3.870;2022-09-13T05:56:39;11.13;;;3.40;;
15915;SDS011;8057;47.830;-3.870;2022-09-13T06:00:51;9.07;;;3.07;;
15915;SDS011;8057;47.830;-3.870;2022-09-13T06:05:03;8.43;;;2.80;;
15915;SDS011;8057;47.830;-3.870;2022-09-13T06:09:13;9.70;;;3.00;;
15915;SDS011;8057;47.830;-3.870;2022-09-13T06:13:23;6.87;;;3.17;;
15915;SDS011;8057;47.830;-3.870;2022-09-13T06:17:33;6.57;;;2.63;;
15915;SDS011;8057;47.830;-3.870;2022-09-13T06:21:44;9.10;;;3.23;;
15915;SDS011;8057;47.830;-3.870;2022-09-13T06:26:00;6.90;;;2.37;;
15915;SDS011;8057;47.830;-3.870;2022-09-13T06:30:11;7.17;;;2.80;;
15915;SDS011;8057;47.830;-3.870;2022-09-13T06:34:21;6.70;;;3.13;;
15915;SDS011;8057;47.830;-3.870;2022-09-13T06:38:39;9.90;;;2.97;;
15915;SDS011;8057;47.830;-3.870;2022-09-13T06:42:48;5.90;;;2.63;;
15915;SDS011;8057;47.830;-3.870;2022-09-13T06:46:58;6.50;;;3.00;;
15915;SDS011;8057;47.830;-3.870;2022-09-13T06:51:09;7.87;;;2.77;;
15915;SDS011;8057;47.830;-3.870;2022-09-13T06:55:20;8.87;;;2.97;;
15915;SDS011;8057;47.830;-3.870;2022-09-13T06:59:29;7.60;;;3.13;;
15915;SDS011;8057;47.830;-3.870;2022-09-13T07:03:41;6.77;;;3.00;;
15915;SDS011;8057;47.830;-3.870;2022-09-13T07:07:52;4.90;;;2.50;;
15915;SDS011;8057;47.830;-3.870;2022-09-13T07:12:03;6.60;;;3.07;;
15915;SDS011;8057;47.830;-3.870;2022-09-13T07:16:14;8.37;;;2.50;;
15915;SDS011;8057;47.830;-3.870;2022-09-13T07:20:24;5.43;;;2.27;;
15915;SDS011;8057;47.830;-3.870;2022-09-13T07:24:33;6.07;;;2.57;;
15915;SDS011;8057;47.830;-3.870;2022-09-13T07:28:45;7.97;;;2.70;;
15915;SDS011;8057;47.830;-3.870;2022-09-13T07:32:55;4.57;;;2.57;;
15915;SDS011;8057;47.830;-3.870;2022-09-13T07:37:04;8.20;;;2.87;;
15915;SDS011;8057;47.830;-3.870;2022-09-13T07:41:14;4.73;;;2.50;;
15915;SDS011;8057;47.830;-3.870;2022-09-13T07:45:26;7.80;;;3.00;;
15915;SDS011;8057;47.830;-3.870;2022-09-13T07:49:35;9.73;;;2.90;;
15915;SDS011;8057;47.830;-3.870;2022-09-13T07:53:45;8.37;;;2.73;;
15915;SDS011;8057;47.830;-3.870;2022-09-13T07:58:02;4.60;;;2.57;;
15915;SDS011;8057;47.830;-3.870;2022-09-13T08:02:13;8.17;;;2.83;;
15915;SDS011;8057;47.830;-3.870;2022-09-13T08:06:25;5.37;;;2.40;;
15915;SDS011;8057;47.830;-3.870;2022-09-13T08:10:36;4.67;;;2.43;;
15915;SDS011;8057;47.830;-3.870;2022-09-13T08:14:45;5.00;;;2.70;;
15915;SDS011;8057;47.830;-3.870;2022-09-13T08:18:56;5.10;;;2.60;;
15915;SDS011;8057;47.830;-3.870;2022-09-13T08:23:06;6.33;;;2.50;;
15915;SDS011;8057;47.830;-3.870;2022-09-13T08:27:15;5.13;;;2.50;;
15915;SDS011;8057;47.830;-3.870;2022-09-13T08:31:25;7.70;;;2.80;;
15915;SDS011;8057;47.830;-3.870;2022-09-13T08:35:36;5.43;;;2.40;;
15915;SDS011;8057;47.830;-3.870;2022-09-13T08:39:45;10.27;;;2.90;;
15915;SDS011;8057;47.830;-3.870;2022-09-13T08:43:56;6.40;;;2.67;;
15915;SDS011;8057;47.830;-3.870;2022-09-13T08:48:10;7.97;;;2.80;;
15915;SDS011;8057;47.830;-3.870;2022-09-13T08:52:27;8.13;;;3.07;;
15915;SDS011;8057;47.830;-3.870;2022-09-13T08:56:40;8.03;;;3.00;;
15915;SDS011;8057;47.830;-3.870;2022-09-13T09:00:54;6.57;;;2.57;;
15915;SDS011;8057;47.830;-3.870;2022-09-13T09:05:14;6.27;;;2.77;;
15915;SDS011;8057;47.830;-3.870;2022-09-13T09:09:26;7.13;;;2.67;;
15915;SDS011;8057;47.830;-3.870;2022-09-13T09:13:40;8.60;;;3.00;;
15915;SDS011;8057;47.830;-3.870;2022-09-13T09:17:59;11.30;;;2.60;;
15915;SDS011;8057;47.830;-3.870;2022-09-13T09:22:15;7.00;;;2.90;;
15915;SDS011;8057;47.830;-3.870;2022-09-13T09:26:29;6.30;;;2.30;;
15915;SDS011;8057;47.830;-3.870;2022-09-13T09:30:45;8.07;;;2.63;;
15915;SDS011;8057;47.830;-3.870;2022-09-13T09:35:08;5.30;;;2.90;;
15915;SDS011;8057;47.830;-3.870;2022-09-13T09:39:23;4.83;;;2.47;;
15915;SDS011;8057;47.830;-3.870;2022-09-13T09:43:41;4.83;;;2.47;;
15915;SDS011;8057;47.830;-3.870;2022-09-13T09:47:55;4.93;;;2.30;;
15915;SDS011;8057;47.830;-3.870;2022-09-13T09:52:13;9.53;;;2.70;;
15915;SDS011;8057;47.830;-3.870;2022-09-13T09:56:28;6.20;;;3.00;;
15915;SDS011;8057;47.830;-3.870;2022-09-13T10:00:49;5.33;;;2.43;;
15915;SDS011;8057;47.830;-3.870;2022-09-13T10:04:59;5.33;;;2.43;;
15915;SDS011;8057;47.830;-3.870;2022-09-13T10:09:13;8.43;;;3.03;;
15915;SDS011;8057;47.830;-3.870;2022-09-13T10:13:25;5.50;;;2.60;;
15915;SDS011;8057;47.830;-3.870;2022-09-13T10:17:40;5.50;;;2.63;;
15915;SDS011;8057;47.830;-3.870;2022-09-13T10:21:59;5.83;;;3.03;;
15915;SDS011;8057;47.830;-3.870;2022-09-13T10:26:10;7.97;;;2.73;;
15915;SDS011;8057;47.830;-3.870;2022-09-13T10:30:29;6.10;;;2.67;;
15915;SDS011;8057;47.830;-3.870;2022-09-13T10:35:01;9.60;;;5.53;;
15915;SDS011;8057;47.830;-3.870;2022-09-13T10:39:21;9.80;;;3.10;;
15915;SDS011;8057;47.830;-3.870;2022-09-13T10:43:31;7.20;;;3.00;;
15915;SDS011;8057;47.830;-3.870;2022-09-13T10:47:44;6.93;;;5.70;;
15915;SDS011;8057;47.830;-3.870;2022-09-13T10:51:57;9.27;;;6.60;;
15915;SDS011;8057;47.830;-3.870;2022-09-13T10:56:17;16.30;;;14.80;;
15915;SDS011;8057;47.830;-3.870;2022-09-13T11:00:29;13.97;;;12.53;;
15915;SDS011;8057;47.830;-3.870;2022-09-13T11:09:32;14.57;;;13.27;;
15915;SDS011;8057;47.830;-3.870;2022-09-13T11:13:53;19.30;;;17.40;;
15915;SDS011;8057;47.830;-3.870;2022-09-13T11:18:31;15.40;;;13.97;;
15915;SDS011;8057;47.830;-3.870;2022-09-13T11:23:03;12.17;;;10.37;;
15915;SDS011;8057;47.830;-3.870;2022-09-13T11:27:51;14.17;;;12.67;;
15915;SDS011;8057;47.830;-3.870;2022-09-13T11:32:13;14.90;;;11.60;;
15915;SDS011;8057;47.830;-3.870;2022-09-13T11:41:14;10.23;;;9.23;;
15915;SDS011;8057;47.830;-3.870;2022-09-13T11:45:35;8.57;;;6.70;;
15915;SDS011;8057;47.830;-3.870;2022-09-13T11:49:57;16.70;;;15.07;;
15915;SDS011;8057;47.830;-3.870;2022-09-13T11:54:24;25.63;;;23.13;;
15915;SDS011;8057;47.830;-3.870;2022-09-13T11:58:51;26.80;;;24.13;;
15915;SDS011;8057;47.830;-3.870;2022-09-13T12:03:09;27.80;;;25.03;;
15915;SDS011;8057;47.830;-3.870;2022-09-13T12:07:27;28.40;;;25.97;;
15915;SDS011;8057;47.830;-3.870;2022-09-13T12:12:04;30.57;;;27.80;;
15915;SDS011;8057;47.830;-3.870;2022-09-13T12:16:37;30.13;;;27.47;;
15915;SDS011;8057;47.830;-3.870;2022-09-13T12:35:35;29.40;;;26.90;;
15915;SDS011;8057;47.830;-3.870;2022-09-13T13:04:19;31.77;;;28.90;;
15915;SDS011;8057;47.830;-3.870;2022-09-13T13:14:25;32.67;;;29.40;;
15915;SDS011;8057;47.830;-3.870;2022-09-13T13:45:28;32.77;;;29.67;;
15915;SDS011;8057;47.830;-3.870;2022-09-13T14:02:02;26.70;;;24.30;;
15915;SDS011;8057;47.830;-3.870;2022-09-13T14:06:30;21.97;;;20.20;;
15915;SDS011;8057;47.830;-3.870;2022-09-13T14:11:26;24.97;;;22.70;;
15915;SDS011;8057;47.830;-3.870;2022-09-13T14:25:56;18.27;;;16.20;;
15915;SDS011;8057;47.830;-3.870;2022-09-13T14:30:18;20.57;;;18.77;;
15915;SDS011;8057;47.830;-3.870;2022-09-13T14:34:49;21.83;;;19.67;;
15915;SDS011;8057;47.830;-3.870;2022-09-13T14:44:33;20.87;;;18.87;;
15915;SDS011;8057;47.830;-3.870;2022-09-13T14:49:27;20.33;;;18.43;;
15915;SDS011;8057;47.830;-3.870;2022-09-13T14:54:14;18.70;;;17.00;;
15915;SDS011;8057;47.830;-3.870;2022-09-13T14:58:57;19.33;;;16.97;;
15915;SDS011;8057;47.830;-3.870;2022-09-13T15:03:26;17.33;;;15.63;;
15915;SDS011;8057;47.830;-3.870;2022-09-13T15:12:53;16.40;;;14.77;;
15915;SDS011;8057;47.830;-3.870;2022-09-13T15:18:02;15.97;;;14.27;;
15915;SDS011;8057;47.830;-3.870;2022-09-13T15:28:18;17.43;;;13.43;;
15915;SDS011;8057;47.830;-3.870;2022-09-13T15:32:31;14.67;;;13.13;;
15915;SDS011;8057;47.830;-3.870;2022-09-13T15:36:42;17.50;;;14.13;;
15915;SDS011;8057;47.830;-3.870;2022-09-13T15:40:59;17.40;;;14.00;;
15915;SDS011;8057;47.830;-3.870;2022-09-13T15:45:11;16.47;;;14.43;;
15915;SDS011;8057;47.830;-3.870;2022-09-13T15:49:21;17.60;;;13.10;;
15915;SDS011;8057;47.830;-3.870;2022-09-13T15:53:32;16.20;;;13.37;;
15915;SDS011;8057;47.830;-3.870;2022-09-13T15:57:41;16.00;;;12.50;;
15915;SDS011;8057;47.830;-3.870;2022-09-13T16:01:53;13.93;;;12.33;;
15915;SDS011;8057;47.830;-3.870;2022-09-13T16:06:03;15.80;;;11.87;;
15915;SDS011;8057;47.830;-3.870;2022-09-13T16:10:14;18.17;;;11.70;;
15915;SDS011;8057;47.830;-3.870;2022-09-13T16:14:24;14.10;;;10.57;;
15915;SDS011;8057;47.830;-3.870;2022-09-13T16:18:35;14.60;;;10.43;;
15915;SDS011;8057;47.830;-3.870;2022-09-13T16:22:45;12.60;;;10.80;;
15915;SDS011;8057;47.830;-3.870;2022-09-13T16:26:54;13.13;;;10.40;;
15915;SDS011;8057;47.830;-3.870;2022-09-13T16:31:06;15.73;;;10.10;;
15915;SDS011;8057;47.830;-3.870;2022-09-13T16:35:17;14.43;;;9.67;;
15915;SDS011;8057;47.830;-3.870;2022-09-13T16:39:26;16.43;;;9.73;;
15915;SDS011;8057;47.830;-3.870;2022-09-13T16:43:35;14.03;;;10.20;;
15915;SDS011;8057;47.830;-3.870;2022-09-13T16:47:44;14.70;;;9.70;;
15915;SDS011;8057;47.830;-3.870;2022-09-13T16:51:55;12.10;;;9.57;;
15915;SDS011;8057;47.830;-3.870;2022-09-13T16:56:05;13.03;;;9.57;;
15915;SDS011;8057;47.830;-3.870;2022-09-13T17:00:15;14.73;;;10.23;;
15915;SDS011;8057;47.830;-3.870;2022-09-13T17:04:25;14.50;;;10.67;;
15915;SDS011;8057;47.830;-3.870;2022-09-13T17:08:36;15.07;;;10.13;;
15915;SDS011;8057;47.830;-3.870;2022-09-13T17:12:47;11.20;;;9.93;;
15915;SDS011;8057;47.830;-3.870;2022-09-13T17:16:57;13.53;;;10.00;;
15915;SDS011;8057;47.830;-3.870;2022-09-13T17:21:06;15.70;;;9.03;;
15915;SDS011;8057;47.830;-3.870;2022-09-13T17:25:16;16.77;;;9.40;;
15915;SDS011;8057;47.830;-3.870;2022-09-13T17:29:26;13.37;;;8.53;;
15915;SDS011;8057;47.830;-3.870;2022-09-13T17:33:37;14.27;;;8.00;;
15915;SDS011;8057;47.830;-3.870;2022-09-13T17:37:46;10.47;;;7.80;;
15915;SDS011;8057;47.830;-3.870;2022-09-13T17:41:57;12.00;;;7.67;;
15915;SDS011;8057;47.830;-3.870;2022-09-13T17:46:07;8.53;;;6.73;;
15915;SDS011;8057;47.830;-3.870;2022-09-13T17:50:18;12.80;;;6.60;;
15915;SDS011;8057;47.830;-3.870;2022-09-13T17:54:43;12.53;;;7.20;;
15915;SDS011;8057;47.830;-3.870;2022-09-13T17:58:54;10.37;;;6.47;;
15915;SDS011;8057;47.830;-3.870;2022-09-13T18:07:29;11.07;;;6.73;;
15915;SDS011;8057;47.830;-3.870;2022-09-13T18:12:10;8.70;;;6.70;;
15915;SDS011;8057;47.830;-3.870;2022-09-13T18:16:34;13.33;;;6.23;;
15915;SDS011;8057;47.830;-3.870;2022-09-13T18:20:47;13.50;;;6.90;;
15915;SDS011;8057;47.830;-3.870;2022-09-13T18:25:03;9.40;;;6.07;;
15915;SDS011;8057;47.830;-3.870;2022-09-13T18:29:15;11.83;;;6.40;;
15915;SDS011;8057;47.830;-3.870;2022-09-13T18:38:12;16.47;;;7.30;;
15915;SDS011;8057;47.830;-3.870;2022-09-13T18:43:00;12.47;;;6.00;;
15915;SDS011;8057;47.830;-3.870;2022-09-13T18:47:43;11.27;;;6.00;;
15915;SDS011;8057;47.830;-3.870;2022-09-13T18:52:18;13.70;;;5.77;;
15915;SDS011;8057;47.830;-3.870;2022-09-13T18:56:27;10.03;;;5.27;;
15915;SDS011;8057;47.830;-3.870;2022-09-13T19:00:41;12.27;;;5.77;;
15915;SDS011;8057;47.830;-3.870;2022-09-13T19:05:31;11.63;;;5.40;;
15915;SDS011;8057;47.830;-3.870;2022-09-13T19:21:03;10.23;;;5.17;;
15915;SDS011;8057;47.830;-3.870;2022-09-13T19:25:14;14.30;;;6.67;;
15915;SDS011;8057;47.830;-3.870;2022-09-13T19:29:23;10.30;;;5.67;;
15915;SDS011;8057;47.830;-3.870;2022-09-13T19:34:03;12.20;;;5.97;;
15915;SDS011;8057;47.830;-3.870;2022-09-13T19:53:50;13.83;;;5.77;;
15915;SDS011;8057;47.830;-3.870;2022-09-13T19:58:05;11.07;;;5.70;;
15915;SDS011;8057;47.830;-3.870;2022-09-13T20:02:34;12.50;;;5.93;;
15915;SDS011;8057;47.830;-3.870;2022-09-13T20:06:46;11.07;;;5.47;;
15915;SDS011;8057;47.830;-3.870;2022-09-13T20:11:01;11.33;;;5.13;;
15915;SDS011;8057;47.830;-3.870;2022-09-13T20:15:15;13.80;;;5.80;;
15915;SDS011;8057;47.830;-3.870;2022-09-13T20:19:25;14.47;;;5.03;;
15915;SDS011;8057;47.830;-3.870;2022-09-13T20:24:05;15.83;;;6.17;;
15915;SDS011;8057;47.830;-3.870;2022-09-13T20:28:24;13.77;;;5.10;;
15915;SDS011;8057;47.830;-3.870;2022-09-13T20:32:33;13.03;;;5.70;;
15915;SDS011;8057;47.830;-3.870;2022-09-13T20:36:43;12.73;;;6.00;;
15915;SDS011;8057;47.830;-3.870;2022-09-13T20:40:53;10.53;;;5.33;;
15915;SDS011;8057;47.830;-3.870;2022-09-13T20:45:06;16.60;;;5.37;;
15915;SDS011;8057;47.830;-3.870;2022-09-13T20:49:17;10.40;;;4.83;;
15915;SDS011;8057;47.830;-3.870;2022-09-13T20:53:27;12.90;;;4.83;;
15915;SDS011;8057;47.830;-3.870;2022-09-13T20:57:37;13.17;;;5.10;;
15915;SDS011;8057;47.830;-3.870;2022-09-13T21:01:49;14.63;;;5.63;;
15915;SDS011;8057;47.830;-3.870;2022-09-13T21:06:00;14.67;;;5.60;;
15915;SDS011;8057;47.830;-3.870;2022-09-13T21:10:10;14.63;;;5.07;;
15915;SDS011;8057;47.830;-3.870;2022-09-13T21:14:22;8.37;;;4.70;;
15915;SDS011;8057;47.830;-3.870;2022-09-13T21:18:36;10.23;;;4.50;;
15915;SDS011;8057;47.830;-3.870;2022-09-13T21:22:46;9.77;;;4.63;;
15915;SDS011;8057;47.830;-3.870;2022-09-13T21:26:55;11.43;;;5.07;;
15915;SDS011;8057;47.830;-3.870;2022-09-13T21:31:05;11.03;;;5.10;;
15915;SDS011;8057;47.830;-3.870;2022-09-13T21:35:16;15.50;;;4.80;;
15915;SDS011;8057;47.830;-3.870;2022-09-13T21:39:26;12.83;;;4.83;;
15915;SDS011;8057;47.830;-3.870;2022-09-13T21:43:37;11.87;;;5.10;;
15915;SDS011;8057;47.830;-3.870;2022-09-13T21:47:46;15.57;;;5.63;;
15915;SDS011;8057;47.830;-3.870;2022-09-13T21:51:57;12.60;;;4.73;;
15915;SDS011;8057;47.830;-3.870;2022-09-13T21:56:07;10.60;;;4.60;;
15915;SDS011;8057;47.830;-3.870;2022-09-13T22:00:18;10.47;;;4.40;;
15915;SDS011;8057;47.830;-3.870;2022-09-13T22:04:27;10.80;;;5.00;;
15915;SDS011;8057;47.830;-3.870;2022-09-13T22:08:38;11.43;;;4.90;;
15915;SDS011;8057;47.830;-3.870;2022-09-13T22:12:49;17.03;;;4.90;;
15915;SDS011;8057;47.830;-3.870;2022-09-13T22:16:58;10.83;;;4.47;;
15915;SDS011;8057;47.830;-3.870;2022-09-13T22:21:08;14.60;;;5.20;;
15915;SDS011;8057;47.830;-3.870;2022-09-13T22:25:20;14.80;;;5.10;;
15915;SDS011;8057;47.830;-3.870;2022-09-13T22:29:30;13.40;;;4.30;;
15915;SDS011;8057;47.830;-3.870;2022-09-13T22:33:39;12.27;;;4.60;;
15915;SDS011;8057;47.830;-3.870;2022-09-13T22:37:49;16.23;;;4.67;;
15915;SDS011;8057;47.830;-3.870;2022-09-13T22:42:00;12.03;;;4.63;;
15915;SDS011;8057;47.830;-3.870;2022-09-13T22:46:10;12.40;;;4.70;;
15915;SDS011;8057;47.830;-3.870;2022-09-13T22:50:20;14.87;;;5.40;;
15915;SDS011;8057;47.830;-3.870;2022-09-13T22:54:30;12.60;;;5.03;;
15915;SDS011;8057;47.830;-3.870;2022-09-13T22:58:41;14.33;;;4.87;;
15915;SDS011;8057;47.830;-3.870;2022-09-13T23:02:51;14.33;;;4.97;;
15915;SDS011;8057;47.830;-3.870;2022-09-13T23:07:01;13.47;;;4.20;;
15915;SDS011;8057;47.830;-3.870;2022-09-13T23:11:11;12.23;;;5.33;;
15915;SDS011;8057;47.830;-3.870;2022-09-13T23:15:23;8.83;;;4.80;;
15915;SDS011;8057;47.830;-3.870;2022-09-13T23:19:32;10.57;;;4.67;;
15915;SDS011;8057;47.830;-3.870;2022-09-13T23:23:42;13.50;;;4.30;;
15915;SDS011;8057;47.830;-3.870;2022-09-13T23:27:51;14.77;;;5.23;;
15915;SDS011;8057;47.830;-3.870;2022-09-13T23:32:02;11.70;;;4.60;;
15915;SDS011;8057;47.830;-3.870;2022-09-13T23:36:12;13.40;;;4.70;;
15915;SDS011;8057;47.830;-3.870;2022-09-13T23:40:22;9.90;;;4.47;;
15915;SDS011;8057;47.830;-3.870;2022-09-13T23:44:31;9.60;;;4.20;;
15915;SDS011;8057;47.830;-3.870;2022-09-13T23:48:42;10.50;;;4.50;;
15915;SDS011;8057;47.830;-3.870;2022-09-13T23:52:52;9.27;;;4.17;;
15915;SDS011;8057;47.830;-3.870;2022-09-13T23:57:01;8.60;;;3.90;;
